Charter Quote
Worldwide +1-877-727-2538 Call
Select Language Lang
SAFETY RELIABILITY EXPERIENCE

Private Jet Charter Services - Changzhi Airport (ZBCZ)

Paramount Business Jets offers private jet charter flights and luxury airliner charters to and from Changzhi Airport.

AIRPORT INFORMATION
ICAOZBCZ
IATACIH
LOCATIONChangzhi, China
FACILITY TYPEAIRPORT

At Paramount Business Jets you can hire chartered private jets to and from Changzhi Airport with as little as 4 hours of notice. All flights booked via Paramount Business Jets are operated by certified direct air carriers that meet and exceed the FAA part 135 and 121 protocol or a foreign equivalent safety authority. Furthermore, Paramount Business Jets subscribes to ARGUS for their third party safety checks of operators, aircraft, and crews prior each and every flight to and from Changzhi Airport and worldwide.

  • Quote a trip using Changzhi Airport or call us 24/7 - 365 days a year at +1-877-727-2538.
Questions? Call +1-877-727-2538

METAR Weather Data at Changzhi Airport, ZBCZ, CIH

STATIONZBCZ
OBSERVEDTue Nov 18, 01:00 UTC
NOWSun Nov 17, 05:42 UTC
AGE43804:42 hr ago
WINDvaries at 2 mph
VISIBILITY7 miles
CONDITIONSmist
METARZBCZ 180100Z VRB01MPS 4100 BR NSC M01/M03 Q1031 NOSIG

Call us on +1-877-727-2538 (24 Hours) to Hire a Private Jet or Get a Quick Quote.

Find Airports Near any Location

Processing
...